Time;durP1;ratioP1;P1;durP2;ratioP2;P2;SDS_P1;SDS_P2;PMS_P1;PMS_P2;Temp;Humidity;BMP_temperature;BMP_pressure;BME280_temperature;BME280_humidity;BME280_pressure;Samples;Min_cycle;Max_cycle;Signal;HPM_P1;HPM_P2
2022/05/30 00:02:03;;;;;;;;;;;9.40;99.90;;;;;;5028322;28;20550;-68
2022/05/30 00:04:31;;;;;;;;;;;9.40;99.90;;;;;;5012315;28;19925;-68
2022/05/30 00:06:58;;;;;;;;;;;9.30;99.90;;;;;;5012570;28;19962;-66
2022/05/30 00:09:25;;;;;;;;;;;9.30;99.90;;;;;;5017467;28;20393;-66
2022/05/30 00:11:52;;;;;;;;;;;9.30;99.90;;;;;;5043055;28;20336;-66
2022/05/30 00:14:19;;;;;;;;;;;9.20;99.90;;;;;;5009220;28;20294;-66
2022/05/30 00:16:45;;;;;;;;;;;9.20;99.90;;;;;;5011956;28;20401;-67
2022/05/30 00:19:12;;;;;;;;;;;9.20;99.90;;;;;;5009644;28;19926;-65
2022/05/30 00:21:40;;;;;;;;;;;9.20;99.90;;;;;;5011952;28;19932;-66
2022/05/30 00:24:07;;;;;;;;;;;9.20;99.90;;;;;;5038933;28;19930;-66
2022/05/30 00:26:34;;;;;;;;;;;9.20;99.90;;;;;;5020841;28;20042;-66
2022/05/30 00:29:01;;;;;;;;;;;9.20;99.90;;;;;;5036578;28;19926;-65
2022/05/30 00:31:28;;;;;;;;;;;9.10;99.90;;;;;;5006262;28;19930;-65
2022/05/30 00:33:54;;;;;;;;;;;9.10;99.90;;;;;;5007917;28;19926;-66
2022/05/30 00:36:21;;;;;;;;;;;9.10;99.90;;;;;;5012043;28;19957;-66
2022/05/30 00:38:50;;;;;;;;;;;9.10;99.90;;;;;;5022844;28;20015;-66
2022/05/30 00:41:17;;;;;;;;;;;9.10;99.90;;;;;;5008558;28;20350;-66
2022/05/30 00:43:45;;;;;;;;;;;9.00;99.90;;;;;;5010509;28;19964;-65
2022/05/30 00:46:15;;;;;;;;;;;8.90;99.90;;;;;;5039879;28;19925;-66
2022/05/30 00:48:44;;;;;;;;;;;8.90;99.90;;;;;;5008912;28;19999;-66
2022/05/30 00:51:12;;;;;;;;;;;8.80;99.90;;;;;;5007846;28;19926;-66
2022/05/30 00:53:40;;;;;;;;;;;8.80;99.90;;;;;;5018359;28;19948;-66
2022/05/30 00:56:10;;;;;;;;;;;8.70;99.90;;;;;;5021854;28;20332;-66
2022/05/30 00:58:40;;;;;;;;;;;8.70;99.90;;;;;;5006921;28;19934;-66
2022/05/30 01:01:07;;;;;;;;;;;8.70;99.90;;;;;;5010930;28;19926;-67
2022/05/30 01:06:33;;;;;;;;;;;8.70;99.90;;;;;;5015439;28;19948;-66
2022/05/30 01:09:02;;;;;;;;;;;8.70;99.90;;;;;;5004467;28;19926;-66
2022/05/30 01:11:44;;;;;;;;;;;8.70;99.90;;;;;;5031467;28;19926;-67
2022/05/30 01:14:12;;;;;;;;;;;8.70;99.90;;;;;;5020625;28;20308;-66
2022/05/30 01:16:39;;;;;;;;;;;8.70;99.90;;;;;;5017841;28;19948;-66
2022/05/30 01:19:08;;;;;;;;;;;8.70;99.90;;;;;;5010836;28;19949;-66
2022/05/30 01:21:46;;;;;;;;;;;8.60;99.90;;;;;;5008641;28;19925;-65
2022/05/30 01:24:22;;;;;;;;;;;8.60;99.90;;;;;;5030601;28;19925;-66
2022/05/30 01:27:14;;;;;;;;;;;8.60;99.90;;;;;;5008224;28;19976;-67
2022/05/30 01:29:47;;;;;;;;;;;8.70;99.90;;;;;;5022236;28;20024;-66
2022/05/30 01:32:17;;;;;;;;;;;8.70;99.90;;;;;;5035950;28;19933;-67
2022/05/30 01:34:44;;;;;;;;;;;8.60;99.90;;;;;;5036165;28;19961;-66
2022/05/30 01:37:11;;;;;;;;;;;8.60;99.90;;;;;;5008337;28;19930;-66
2022/05/30 01:39:38;;;;;;;;;;;8.60;99.90;;;;;;5001952;28;20366;-67
2022/05/30 01:42:06;;;;;;;;;;;8.50;99.90;;;;;;5007393;28;20405;-67
2022/05/30 01:44:34;;;;;;;;;;;8.50;99.90;;;;;;5010696;28;19937;-66
2022/05/30 01:47:03;;;;;;;;;;;8.50;99.90;;;;;;5008230;28;19932;-66
2022/05/30 01:49:30;;;;;;;;;;;8.50;99.90;;;;;;5010785;28;19925;-66
2022/05/30 01:51:59;;;;;;;;;;;8.50;99.90;;;;;;5005080;28;20219;-65
2022/05/30 01:54:27;;;;;;;;;;;8.50;99.90;;;;;;5015839;28;19925;-66
2022/05/30 01:56:54;;;;;;;;;;;8.50;99.90;;;;;;5011711;28;19925;-66
2022/05/30 01:59:24;;;;;;;;;;;8.50;99.90;;;;;;5008234;28;19937;-67
2022/05/30 02:02:12;;;;;;;;;;;8.40;99.90;;;;;;5009507;28;19926;-66
2022/05/30 02:04:40;;;;;;;;;;;8.40;99.90;;;;;;5016067;28;19926;-65
2022/05/30 02:07:07;;;;;;;;;;;8.30;99.90;;;;;;5021835;28;19925;-66
2022/05/30 02:09:33;;;;;;;;;;;8.30;99.90;;;;;;5004230;28;19941;-66
2022/05/30 02:12:00;;;;;;;;;;;8.20;99.90;;;;;;5025657;28;19933;-66
2022/05/30 02:14:43;;;;;;;;;;;8.30;99.90;;;;;;5020787;28;20347;-66
2022/05/30 02:17:13;;;;;;;;;;;8.30;99.90;;;;;;5043086;28;20405;-66
2022/05/30 02:19:41;;;;;;;;;;;8.20;99.90;;;;;;5004960;28;19929;-67
2022/05/30 02:22:10;;;;;;;;;;;8.20;99.90;;;;;;5024523;28;20424;-66
2022/05/30 02:24:38;;;;;;;;;;;8.20;99.90;;;;;;5009929;28;19925;-65
2022/05/30 02:27:05;;;;;;;;;;;8.10;99.90;;;;;;5038431;28;19999;-67
2022/05/30 02:29:32;;;;;;;;;;;8.20;99.90;;;;;;5017552;28;19952;-66
2022/05/30 02:32:02;;;;;;;;;;;8.20;99.90;;;;;;5007478;28;19925;-66
2022/05/30 02:37:14;;;;;;;;;;;8.10;99.90;;;;;;5009580;28;20385;-67
2022/05/30 02:39:43;;;;;;;;;;;8.00;99.90;;;;;;5017714;28;19925;-66
2022/05/30 02:42:29;;;;;;;;;;;8.00;99.90;;;;;;5005827;28;19935;-66
2022/05/30 02:44:57;;;;;;;;;;;8.00;99.90;;;;;;5016320;28;19933;-67
2022/05/30 02:47:23;;;;;;;;;;;8.10;99.90;;;;;;5009224;28;19937;-66
2022/05/30 02:50:00;;;;;;;;;;;8.10;99.90;;;;;;5000711;28;19965;-66
2022/05/30 02:52:27;;;;;;;;;;;8.00;99.90;;;;;;5033764;28;19933;-63
2022/05/30 02:54:55;;;;;;;;;;;8.00;99.90;;;;;;5023960;28;20420;-66
2022/05/30 02:57:27;;;;;;;;;;;7.90;99.90;;;;;;5019777;28;19925;-66
2022/05/30 02:59:54;;;;;;;;;;;7.90;99.90;;;;;;5031864;28;19933;-65
2022/05/30 03:02:22;;;;;;;;;;;7.80;99.90;;;;;;5007186;28;19980;-66
2022/05/30 03:04:49;;;;;;;;;;;7.90;99.90;;;;;;5022982;28;19930;-65
2022/05/30 03:07:17;;;;;;;;;;;7.90;99.90;;;;;;5011068;28;20515;-66
2022/05/30 03:09:44;;;;;;;;;;;7.90;99.90;;;;;;5024170;28;19925;-67
2022/05/30 03:12:18;;;;;;;;;;;7.80;99.90;;;;;;5026355;28;19977;-66
2022/05/30 03:14:45;;;;;;;;;;;7.90;99.90;;;;;;5007426;28;19926;-66
2022/05/30 03:17:12;;;;;;;;;;;7.90;99.90;;;;;;5021934;28;19932;-66
2022/05/30 03:19:44;;;;;;;;;;;7.90;99.90;;;;;;5011958;28;19925;-64
2022/05/30 03:22:11;;;;;;;;;;;8.00;99.90;;;;;;5026447;28;20416;-66
2022/05/30 03:24:59;;;;;;;;;;;8.00;99.90;;;;;;5010279;28;19930;-65
2022/05/30 03:27:26;;;;;;;;;;;8.10;99.90;;;;;;5012348;28;20393;-66
2022/05/30 03:29:53;;;;;;;;;;;8.20;99.90;;;;;;5012743;28;19948;-66
2022/05/30 03:32:20;;;;;;;;;;;8.20;99.90;;;;;;5019661;28;19929;-66
2022/05/30 03:34:47;;;;;;;;;;;8.30;99.90;;;;;;5019979;28;19932;-66
2022/05/30 03:37:14;;;;;;;;;;;8.30;99.90;;;;;;5011688;28;19938;-67
2022/05/30 03:39:46;;;;;;;;;;;8.30;99.90;;;;;;5023130;28;19926;-66
2022/05/30 03:42:33;;;;;;;;;;;8.30;99.90;;;;;;5008712;28;19948;-67
2022/05/30 03:45:03;;;;;;;;;;;8.30;99.90;;;;;;5004215;28;20286;-67
2022/05/30 03:47:36;;;;;;;;;;;8.40;99.90;;;;;;5010353;28;19925;-66
2022/05/30 03:50:03;;;;;;;;;;;8.40;99.90;;;;;;5013138;28;20291;-66
2022/05/30 03:52:33;;;;;;;;;;;8.50;99.90;;;;;;5009621;28;20048;-67
2022/05/30 03:55:02;;;;;;;;;;;8.40;99.90;;;;;;5022004;28;20360;-66
2022/05/30 03:57:29;;;;;;;;;;;8.40;99.90;;;;;;5007436;28;19929;-66
2022/05/30 03:59:57;;;;;;;;;;;8.50;99.90;;;;;;5012791;28;19926;-66
2022/05/30 04:02:25;;;;;;;;;;;8.50;99.90;;;;;;5009382;28;19926;-65
2022/05/30 04:04:52;;;;;;;;;;;8.50;99.90;;;;;;5044162;28;19929;-66
2022/05/30 04:07:19;;;;;;;;;;;8.60;99.90;;;;;;5011709;28;19925;-66
2022/05/30 04:10:06;;;;;;;;;;;8.60;99.90;;;;;;5013267;28;19977;-66
2022/05/30 04:12:59;;;;;;;;;;;8.60;99.90;;;;;;5013221;28;19991;-66
2022/05/30 04:15:46;;;;;;;;;;;8.60;99.90;;;;;;5009573;28;19932;-66
2022/05/30 04:18:12;;;;;;;;;;;8.60;99.90;;;;;;5007053;28;19933;-67
2022/05/30 04:20:40;;;;;;;;;;;8.70;99.90;;;;;;5005502;28;20056;-66
2022/05/30 04:23:07;;;;;;;;;;;8.70;99.90;;;;;;5008007;28;19926;-66
2022/05/30 04:25:42;;;;;;;;;;;8.70;99.90;;;;;;5004601;28;19932;-66
2022/05/30 04:28:09;;;;;;;;;;;8.70;99.90;;;;;;5005945;28;19925;-66
2022/05/30 04:30:41;;;;;;;;;;;8.70;99.90;;;;;;5025246;28;19932;-66
2022/05/30 04:33:09;;;;;;;;;;;8.70;99.90;;;;;;5011499;28;19933;-66
2022/05/30 04:35:36;;;;;;;;;;;8.80;99.90;;;;;;5011617;28;20389;-66
2022/05/30 04:38:03;;;;;;;;;;;8.80;99.90;;;;;;5004264;28;19926;-68
2022/05/30 04:40:53;;;;;;;;;;;8.90;99.90;;;;;;5010221;28;20440;-67
2022/05/30 04:43:20;;;;;;;;;;;8.90;99.90;;;;;;5012982;28;19987;-67
2022/05/30 04:46:06;;;;;;;;;;;9.00;99.90;;;;;;5012654;28;20015;-67
2022/05/30 04:48:44;;;;;;;;;;;9.00;99.90;;;;;;5007880;28;19926;-66
2022/05/30 04:51:11;;;;;;;;;;;9.00;99.90;;;;;;5007305;28;19925;-66
2022/05/30 04:53:40;;;;;;;;;;;9.10;99.90;;;;;;5006587;28;19988;-68
2022/05/30 04:56:25;;;;;;;;;;;9.20;99.90;;;;;;5009603;28;19933;-66
2022/05/30 04:59:01;;;;;;;;;;;9.20;99.90;;;;;;5022740;28;20397;-67
2022/05/30 05:01:30;;;;;;;;;;;9.30;99.90;;;;;;5004694;28;19956;-66
2022/05/30 05:03:59;;;;;;;;;;;9.30;99.90;;;;;;5008995;28;19932;-66
2022/05/30 05:06:26;;;;;;;;;;;9.40;99.90;;;;;;5011467;28;19926;-66
2022/05/30 05:08:55;;;;;;;;;;;9.40;99.90;;;;;;5006320;28;19926;-66
2022/05/30 05:11:40;;;;;;;;;;;9.50;99.90;;;;;;5007857;28;19932;-66
2022/05/30 05:14:42;;;;;;;;;;;9.50;99.90;;;;;;5012238;28;19934;-66
2022/05/30 05:17:31;;;;;;;;;;;9.60;99.90;;;;;;5007203;28;20427;-67
2022/05/30 05:20:00;;;;;;;;;;;9.60;99.90;;;;;;5011013;28;20020;-67
2022/05/30 05:22:27;;;;;;;;;;;9.60;99.90;;;;;;5008585;28;20405;-65
2022/05/30 05:24:53;;;;;;;;;;;9.70;99.90;;;;;;5008441;28;19960;-67
2022/05/30 05:27:39;;;;;;;;;;;9.70;99.90;;;;;;5011829;28;19933;-67
2022/05/30 05:30:07;;;;;;;;;;;9.70;99.90;;;;;;5008699;28;19929;-67
2022/05/30 05:32:34;;;;;;;;;;;9.80;99.90;;;;;;5022292;28;20320;-67
2022/05/30 05:35:04;;;;;;;;;;;9.90;99.90;;;;;;5010288;28;19953;-67
2022/05/30 05:37:33;;;;;;;;;;;10.00;99.90;;;;;;5005862;28;19925;-68
2022/05/30 05:40:19;;;;;;;;;;;10.10;99.90;;;;;;5012089;28;20044;-67
2022/05/30 05:42:46;;;;;;;;;;;10.20;99.90;;;;;;5002101;28;19957;-67
2022/05/30 05:45:14;;;;;;;;;;;10.30;99.90;;;;;;5032625;28;19952;-67
2022/05/30 05:47:41;;;;;;;;;;;10.30;99.90;;;;;;5038037;28;20416;-67
2022/05/30 05:50:10;;;;;;;;;;;10.50;99.90;;;;;;5010081;28;19929;-66
2022/05/30 05:52:37;;;;;;;;;;;10.50;99.90;;;;;;5016349;28;19940;-67
2022/05/30 05:55:13;;;;;;;;;;;10.50;99.90;;;;;;5016547;28;19952;-66
2022/05/30 05:57:40;;;;;;;;;;;10.50;99.90;;;;;;5010508;28;19929;-66
2022/05/30 06:00:08;;;;;;;;;;;10.50;99.90;;;;;;5025378;28;20385;-66
2022/05/30 06:02:45;;;;;;;;;;;10.50;99.90;;;;;;5010795;28;19937;-66
2022/05/30 06:05:15;;;;;;;;;;;10.70;99.90;;;;;;5006197;28;19996;-66
2022/05/30 06:08:01;;;;;;;;;;;10.70;99.90;;;;;;5011194;28;19935;-67
2022/05/30 06:11:08;;;;;;;;;;;10.90;99.90;;;;;;5007898;28;20412;-67
2022/05/30 06:13:37;;;;;;;;;;;11.00;99.90;;;;;;5005147;28;20020;-66
2022/05/30 06:16:05;;;;;;;;;;;11.10;99.90;;;;;;5019319;28;19925;-67
2022/05/30 06:18:43;;;;;;;;;;;11.10;99.90;;;;;;5021695;28;20377;-68
2022/05/30 06:21:12;;;;;;;;;;;11.20;99.90;;;;;;5007306;28;19930;-67
2022/05/30 06:23:45;;;;;;;;;;;11.30;99.90;;;;;;5003396;28;20015;-69
2022/05/30 06:26:30;;;;;;;;;;;11.40;99.90;;;;;;5010400;28;19979;-66
2022/05/30 06:29:09;;;;;;;;;;;11.40;99.90;;;;;;5013039;28;20381;-75
2022/05/30 06:31:37;;;;;;;;;;;11.40;99.90;;;;;;5011750;28;19925;-65
2022/05/30 06:34:04;;;;;;;;;;;11.30;99.90;;;;;;5010028;28;19992;-72
2022/05/30 06:36:40;;;;;;;;;;;11.30;99.90;;;;;;5010599;28;19925;-66
2022/05/30 06:39:10;;;;;;;;;;;11.40;99.90;;;;;;5006392;28;19925;-66
2022/05/30 06:41:43;;;;;;;;;;;11.40;99.90;;;;;;5010542;28;19926;-65
2022/05/30 06:44:11;;;;;;;;;;;11.60;99.90;;;;;;5004910;28;20020;-67
2022/05/30 06:46:56;;;;;;;;;;;11.70;99.90;;;;;;5007193;28;19933;-67
2022/05/30 06:49:41;;;;;;;;;;;11.80;99.90;;;;;;5011150;28;20099;-66
2022/05/30 06:52:14;;;;;;;;;;;11.90;99.90;;;;;;5038752;28;19926;-66
2022/05/30 06:54:41;;;;;;;;;;;11.80;99.90;;;;;;5027163;28;19929;-66
2022/05/30 06:59:54;;;;;;;;;;;11.80;99.90;;;;;;5007776;28;20377;-68
2022/05/30 07:02:21;;;;;;;;;;;11.70;99.90;;;;;;5009275;28;19929;-67
2022/05/30 07:04:54;;;;;;;;;;;11.70;99.90;;;;;;5011922;28;20028;-66
2022/05/30 07:07:41;;;;;;;;;;;11.80;99.90;;;;;;5011652;28;20424;-65
2022/05/30 07:10:41;;;;;;;;;;;11.80;99.90;;;;;;5007377;28;19948;-68
2022/05/30 07:13:12;;;;;;;;;;;11.90;99.90;;;;;;5034957;28;19929;-69
2022/05/30 07:15:40;;;;;;;;;;;12.00;99.90;;;;;;5010457;28;19925;-66
2022/05/30 07:18:09;;;;;;;;;;;12.10;99.90;;;;;;5010922;28;20024;-67
2022/05/30 07:20:36;;;;;;;;;;;12.10;99.90;;;;;;5010720;28;19925;-67
2022/05/30 07:23:24;;;;;;;;;;;12.20;99.90;;;;;;5011506;28;20013;-67
2022/05/30 07:26:12;;;;;;;;;;;12.40;99.90;;;;;;5011872;28;20476;-67
2022/05/30 07:28:58;;;;;;;;;;;12.40;99.90;;;;;;5011704;28;19933;-66
2022/05/30 07:31:43;;;;;;;;;;;12.50;99.90;;;;;;5011895;28;19933;-66
2022/05/30 07:34:29;;;;;;;;;;;12.60;99.90;;;;;;5011392;28;19932;-66
2022/05/30 07:37:14;;;;;;;;;;;12.50;99.90;;;;;;5005376;28;19933;-67
2022/05/30 07:40:06;;;;;;;;;;;12.50;99.90;;;;;;5000843;28;19971;-66
2022/05/30 07:42:52;;;;;;;;;;;12.50;99.90;;;;;;5011627;28;20396;-67
2022/05/30 07:45:48;;;;;;;;;;;12.50;99.90;;;;;;5003950;28;19992;-67
2022/05/30 07:48:21;;;;;;;;;;;12.50;99.90;;;;;;5004711;28;19926;-67
2022/05/30 07:51:20;;;;;;;;;;;12.60;99.90;;;;;;5001181;28;20045;-67
2022/05/30 07:53:54;;;;;;;;;;;12.80;99.90;;;;;;5012506;28;19932;-67
2022/05/30 07:56:27;;;;;;;;;;;12.90;99.90;;;;;;5020133;28;19925;-67
2022/05/30 07:58:55;;;;;;;;;;;12.90;99.90;;;;;;5013558;28;19953;-67
2022/05/30 08:01:23;;;;;;;;;;;13.00;99.90;;;;;;5027996;28;20016;-67
2022/05/30 08:03:51;;;;;;;;;;;13.20;99.90;;;;;;5025112;28;19929;-66
2022/05/30 08:06:37;;;;;;;;;;;13.30;99.90;;;;;;5013664;28;19945;-67
2022/05/30 08:09:22;;;;;;;;;;;13.50;99.90;;;;;;5008482;28;20052;-67
2022/05/30 08:12:29;;;;;;;;;;;13.70;99.90;;;;;;5008343;28;20023;-67
2022/05/30 08:14:56;;;;;;;;;;;13.60;99.90;;;;;;5014656;28;19925;-67
2022/05/30 08:17:25;;;;;;;;;;;13.50;99.90;;;;;;5013639;28;19926;-67
2022/05/30 08:19:52;;;;;;;;;;;13.50;99.90;;;;;;5011116;28;19930;-66
2022/05/30 08:22:27;;;;;;;;;;;13.60;99.90;;;;;;5013525;28;19979;-67
2022/05/30 08:24:53;;;;;;;;;;;13.70;99.90;;;;;;5019612;28;19925;-67
2022/05/30 08:27:23;;;;;;;;;;;13.80;99.90;;;;;;5008406;28;19932;-68
2022/05/30 08:30:01;;;;;;;;;;;13.90;99.90;;;;;;5036797;28;19925;-67
2022/05/30 08:32:34;;;;;;;;;;;14.00;99.90;;;;;;5007762;28;19925;-67
2022/05/30 08:35:20;;;;;;;;;;;14.10;99.90;;;;;;5007736;28;19932;-68
2022/05/30 08:37:47;;;;;;;;;;;14.20;99.90;;;;;;5013071;28;20064;-67
2022/05/30 08:43:05;;;;;;;;;;;14.40;99.90;;;;;;5013007;28;19922;-67
2022/05/30 08:45:39;;;;;;;;;;;14.40;99.90;;;;;;5008951;28;20291;-67
2022/05/30 08:48:34;;;;;;;;;;;14.40;99.90;;;;;;5019010;28;19925;-67
2022/05/30 08:51:05;;;;;;;;;;;14.50;99.90;;;;;;5011740;28;20436;-67
2022/05/30 08:53:44;;;;;;;;;;;14.50;99.90;;;;;;5009437;28;19986;-68
2022/05/30 08:56:18;;;;;;;;;;;14.70;99.90;;;;;;5000166;28;19933;-67
2022/05/30 08:59:18;;;;;;;;;;;14.80;99.90;;;;;;5013907;28;20289;-67
2022/05/30 09:01:47;;;;;;;;;;;15.10;99.90;;;;;;5012482;28;19925;-68
2022/05/30 09:04:36;;;;;;;;;;;14.80;99.90;;;;;;5012861;28;19925;-67
2022/05/30 09:07:05;;;;;;;;;;;14.80;99.90;;;;;;5012739;28;20366;-67
2022/05/30 09:09:38;;;;;;;;;;;14.80;99.90;;;;;;5005042;28;19930;-67
2022/05/30 09:12:15;;;;;;;;;;;15.00;99.90;;;;;;5011937;28;19926;-67
2022/05/30 09:14:59;;;;;;;;;;;15.10;99.90;;;;;;5019055;28;19925;-67
2022/05/30 09:17:29;;;;;;;;;;;15.40;99.90;;;;;;5012241;28;19933;-68
2022/05/30 09:19:57;;;;;;;;;;;15.70;99.90;;;;;;5010119;28;20376;-67
2022/05/30 09:22:25;;;;;;;;;;;15.90;99.90;;;;;;5012181;28;20350;-67
2022/05/30 09:27:56;;;;;;;;;;;16.60;99.90;;;;;;5019603;28;19922;-67
2022/05/30 09:30:54;;;;;;;;;;;16.50;99.90;;;;;;4997030;28;20012;-67
2022/05/30 09:33:42;;;;;;;;;;;16.10;99.90;;;;;;5011997;28;19957;-67
2022/05/30 09:36:47;;;;;;;;;;;16.00;99.90;;;;;;5007567;28;19936;-66
2022/05/30 09:39:46;;;;;;;;;;;16.20;99.90;;;;;;5007713;28;19968;-67
2022/05/30 09:42:24;;;;;;;;;;;16.20;99.90;;;;;;5003803;28;19937;-67
2022/05/30 09:44:52;;;;;;;;;;;15.80;99.90;;;;;;5009027;28;20296;-66
2022/05/30 09:47:58;;;;;;;;;;;15.70;99.90;;;;;;5006605;28;19941;-67
2022/05/30 09:50:41;;;;;;;;;;;15.60;99.90;;;;;;5007168;28;19965;-67
2022/05/30 09:53:07;;;;;;;;;;;15.50;99.90;;;;;;5009134;28;20372;-67
2022/05/30 09:55:36;;;;;;;;;;;15.40;99.90;;;;;;5005633;28;20413;-66
2022/05/30 09:58:10;;;;;;;;;;;15.30;99.90;;;;;;5028268;28;19925;-67
2022/05/30 10:00:58;;;;;;;;;;;15.40;99.90;;;;;;5010349;28;19926;-66
2022/05/30 10:03:31;;;;;;;;;;;15.60;99.90;;;;;;5011463;28;19926;-67
2022/05/30 10:06:19;;;;;;;;;;;15.80;99.90;;;;;;5011211;28;19932;-66
2022/05/30 10:08:48;;;;;;;;;;;15.90;99.90;;;;;;5018552;28;19926;-66
2022/05/30 10:11:27;;;;;;;;;;;16.10;99.90;;;;;;5007216;28;19932;-67
2022/05/30 10:13:54;;;;;;;;;;;16.10;99.90;;;;;;5009166;28;19925;-67
2022/05/30 10:16:52;;;;;;;;;;;16.00;99.90;;;;;;5009335;28;19932;-67
2022/05/30 10:19:24;;;;;;;;;;;16.10;99.90;;;;;;5020624;28;20400;-67
2022/05/30 10:28:20;;;;;;;;;;;16.20;99.90;;;;;;5011042;28;19944;-68
2022/05/30 10:31:11;;;;;;;;;;;16.50;99.90;;;;;;5012338;28;19933;-68
2022/05/30 10:34:01;;;;;;;;;;;16.50;99.90;;;;;;5010750;28;20020;-68
2022/05/30 10:36:35;;;;;;;;;;;16.40;99.90;;;;;;5030408;28;19983;-66
2022/05/30 10:39:17;;;;;;;;;;;16.50;99.90;;;;;;5011021;28;19925;-67
2022/05/30 10:41:50;;;;;;;;;;;16.60;99.90;;;;;;5007390;28;19925;-66
2022/05/30 10:44:21;;;;;;;;;;;16.60;99.90;;;;;;5006787;28;20373;-67
2022/05/30 10:46:56;;;;;;;;;;;16.90;99.90;;;;;;5010534;28;20385;-67
2022/05/30 10:49:32;;;;;;;;;;;17.10;99.90;;;;;;4998048;28;19946;-68
2022/05/30 10:52:01;;;;;;;;;;;17.00;99.90;;;;;;5010034;28;20048;-68
2022/05/30 10:54:33;;;;;;;;;;;17.50;99.90;;;;;;5007454;28;19980;-67
2022/05/30 10:57:10;;;;;;;;;;;17.60;99.90;;;;;;5010936;28;19925;-67
2022/05/30 10:59:38;;;;;;;;;;;17.50;99.90;;;;;;5004783;28;19926;-68
2022/05/30 11:02:09;;;;;;;;;;;17.60;99.90;;;;;;5010072;28;19965;-67
2022/05/30 11:04:39;;;;;;;;;;;17.90;99.90;;;;;;5015265;28;19925;-68
2022/05/30 11:07:17;;;;;;;;;;;18.00;99.90;;;;;;5010598;28;20488;-68
2022/05/30 11:09:48;;;;;;;;;;;18.40;99.90;;;;;;5010658;28;19925;-67
2022/05/30 11:12:16;;;;;;;;;;;18.70;99.90;;;;;;5010221;28;19925;-67
2022/05/30 11:14:46;;;;;;;;;;;18.70;99.90;;;;;;5016890;28;20506;-68
2022/05/30 11:17:35;;;;;;;;;;;18.40;99.90;;;;;;5007027;28;20356;-68
2022/05/30 11:20:05;;;;;;;;;;;18.10;99.90;;;;;;5007400;28;20401;-67
2022/05/30 11:22:53;;;;;;;;;;;18.10;99.90;;;;;;5008960;28;19988;-67
2022/05/30 11:25:24;;;;;;;;;;;17.70;99.90;;;;;;5010785;28;19925;-67
2022/05/30 11:27:56;;;;;;;;;;;17.90;99.90;;;;;;5014545;28;19925;-68
2022/05/30 11:30:29;;;;;;;;;;;17.70;99.90;;;;;;5013344;28;19961;-68
2022/05/30 11:33:13;;;;;;;;;;;17.80;99.90;;;;;;5045174;28;19926;-67
2022/05/30 11:35:44;;;;;;;;;;;17.90;99.90;;;;;;5041654;28;19926;-67
2022/05/30 11:38:33;;;;;;;;;;;18.30;99.90;;;;;;5044359;28;19925;-67
2022/05/30 11:41:07;;;;;;;;;;;18.50;99.90;;;;;;5013717;28;19926;-67
2022/05/30 11:43:40;;;;;;;;;;;18.60;99.90;;;;;;5013939;28;19929;-67
2022/05/30 11:46:14;;;;;;;;;;;18.80;99.90;;;;;;5003003;28;19980;-68
2022/05/30 11:48:43;;;;;;;;;;;18.90;99.90;;;;;;5042249;28;19926;-68
2022/05/30 11:51:15;;;;;;;;;;;18.70;99.90;;;;;;5010025;28;20021;-67
2022/05/30 11:53:59;;;;;;;;;;;17.80;99.90;;;;;;5008119;28;19961;-68
2022/05/30 11:56:32;;;;;;;;;;;16.80;99.90;;;;;;5028051;28;19930;-67
2022/05/30 11:59:26;;;;;;;;;;;16.50;99.90;;;;;;5040526;28;19929;-67
2022/05/30 12:01:55;;;;;;;;;;;16.30;99.90;;;;;;5006329;28;19957;-68
2022/05/30 12:04:40;;;;;;;;;;;16.10;99.90;;;;;;5018272;28;20032;-68
2022/05/30 12:07:18;;;;;;;;;;;16.10;99.90;;;;;;5028493;28;19925;-69
2022/05/30 12:09:53;;;;;;;;;;;16.10;99.90;;;;;;5009480;28;19965;-67
2022/05/30 12:12:38;;;;;;;;;;;16.20;99.90;;;;;;5010508;28;19925;-68
2022/05/30 12:15:20;;;;;;;;;;;16.30;99.90;;;;;;5011368;28;19941;-68
2022/05/30 12:23:49;;;;;;;;;;;16.70;99.90;;;;;;5010911;28;19972;-68
2022/05/30 12:26:16;;;;;;;;;;;16.90;99.90;;;;;;5012125;28;19932;-67
2022/05/30 12:28:55;;;;;;;;;;;17.00;99.90;;;;;;5010735;28;19955;-67
2022/05/30 12:31:35;;;;;;;;;;;17.50;99.90;;;;;;5007865;28;19926;-69
2022/05/30 12:34:02;;;;;;;;;;;17.90;99.90;;;;;;5011271;28;19937;-68
2022/05/30 12:36:31;;;;;;;;;;;18.30;99.90;;;;;;5008244;28;19925;-65
2022/05/30 12:38:58;;;;;;;;;;;19.00;99.90;;;;;;5008608;28;19976;-65
2022/05/30 12:41:27;;;;;;;;;;;19.20;99.90;;;;;;5008213;28;19933;-66
2022/05/30 12:43:55;;;;;;;;;;;19.80;99.90;;;;;;5004271;28;20365;-65
2022/05/30 12:46:25;;;;;;;;;;;20.00;99.90;;;;;;5034296;28;19926;-68
2022/05/30 12:49:01;;;;;;;;;;;20.40;99.90;;;;;;5011446;28;19925;-68
2022/05/30 12:51:31;;;;;;;;;;;20.70;99.90;;;;;;5009933;28;19932;-65
2022/05/30 12:53:58;;;;;;;;;;;;;;;;;;5011055;28;19926;-66
2022/05/30 12:56:44;;;;;;;;;;;22.40;99.90;;;;;;5012963;28;19933;-66
2022/05/30 12:59:19;;;;;;;;;;;22.30;99.90;;;;;;5022191;28;20402;-65
2022/05/30 13:01:53;;;;;;;;;;;21.90;99.90;;;;;;5010869;28;19936;-66
2022/05/30 13:04:25;;;;;;;;;;;22.00;99.90;;;;;;5008811;28;19933;-68
2022/05/30 13:06:54;;;;;;;;;;;23.40;99.90;;;;;;5008942;28;19926;-67
2022/05/30 13:09:22;;;;;;;;;;;25.10;99.90;;;;;;5011390;28;19925;-68
2022/05/30 13:11:56;;;;;;;;;;;26.00;99.90;;;;;;5016184;28;20397;-67
2022/05/30 13:14:30;;;;;;;;;;;25.20;99.90;;;;;;5026715;28;19926;-68
2022/05/30 13:17:00;;;;;;;;;;;23.50;99.90;;;;;;5015470;28;19980;-68
2022/05/30 13:19:29;;;;;;;;;;;22.30;99.90;;;;;;5025044;28;19936;-68
2022/05/30 13:21:56;;;;;;;;;;;21.80;99.90;;;;;;5016632;28;19934;-66
2022/05/30 13:24:27;;;;;;;;;;;21.50;99.90;;;;;;5036030;28;19937;-68
2022/05/30 13:26:54;;;;;;;;;;;20.90;99.90;;;;;;5009898;28;20385;-67
2022/05/30 13:29:21;;;;;;;;;;;20.60;99.90;;;;;;5020800;28;19937;-67
2022/05/30 13:31:52;;;;;;;;;;;20.80;99.90;;;;;;5041696;28;20016;-66
2022/05/30 13:34:22;;;;;;;;;;;21.00;99.90;;;;;;5005028;28;20405;-66
2022/05/30 13:36:49;;;;;;;;;;;21.20;99.90;;;;;;5036880;28;19933;-67
2022/05/30 13:39:16;;;;;;;;;;;21.80;99.90;;;;;;5010222;28;20060;-65
2022/05/30 13:41:43;;;;;;;;;;;22.30;99.90;;;;;;5006910;28;19926;-64
2022/05/30 13:44:10;;;;;;;;;;;23.40;99.90;;;;;;5010834;28;19932;-65
2022/05/30 13:46:40;;;;;;;;;;;24.10;99.90;;;;;;5007576;28;20348;-66
2022/05/30 13:49:08;;;;;;;;;;;25.00;99.90;;;;;;5025846;28;20340;-65
2022/05/30 13:51:37;;;;;;;;;;;25.80;99.90;;;;;;5010122;28;19925;-72
2022/05/30 13:54:04;;;;;;;;;;;26.90;99.90;;;;;;5008226;28;19929;-66
2022/05/30 13:56:34;;;;;;;;;;;28.00;99.90;;;;;;5012177;28;19953;-66
2022/05/30 13:59:03;;;;;;;;;;;28.50;99.90;;;;;;5010648;28;19929;-67
2022/05/30 14:01:32;;;;;;;;;;;28.30;99.30;;;;;;5008776;28;19925;-66
2022/05/30 14:04:02;;;;;;;;;;;28.00;97.80;;;;;;5005295;28;19925;-67
2022/05/30 14:06:32;;;;;;;;;;;28.00;97.80;;;;;;5008579;28;20404;-67
2022/05/30 14:08:59;;;;;;;;;;;28.70;98.60;;;;;;5008469;28;19925;-67
2022/05/30 14:11:27;;;;;;;;;;;28.70;98.10;;;;;;5008461;28;19939;-67
2022/05/30 14:13:55;;;;;;;;;;;27.80;96.90;;;;;;5009893;28;19925;-68
2022/05/30 14:16:33;;;;;;;;;;;27.10;97.20;;;;;;5010578;28;19925;-68
2022/05/30 14:19:03;;;;;;;;;;;27.20;98.00;;;;;;5020353;28;19926;-67
2022/05/30 14:21:32;;;;;;;;;;;27.00;97.50;;;;;;5021229;28;19932;-68
2022/05/30 14:24:13;;;;;;;;;;;25.30;97.20;;;;;;5008734;28;19929;-67
2022/05/30 14:26:40;;;;;;;;;;;23.70;96.80;;;;;;5010491;28;19952;-66
2022/05/30 14:29:08;;;;;;;;;;;22.00;97.40;;;;;;5009876;28;19930;-68
2022/05/30 14:31:35;;;;;;;;;;;21.10;97.80;;;;;;5020231;28;19973;-67
2022/05/30 14:34:13;;;;;;;;;;;21.10;99.00;;;;;;5009275;28;19925;-67
2022/05/30 14:36:43;;;;;;;;;;;20.70;98.60;;;;;;5009556;28;20393;-67
2022/05/30 14:39:13;;;;;;;;;;;20.80;99.30;;;;;;5008567;28;20413;-66
2022/05/30 14:41:40;;;;;;;;;;;20.50;99.40;;;;;;5023236;28;19925;-67
2022/05/30 14:44:06;;;;;;;;;;;20.70;99.30;;;;;;5003427;28;20017;-68
2022/05/30 14:46:37;;;;;;;;;;;20.70;99.00;;;;;;5007363;28;19976;-68
2022/05/30 14:49:05;;;;;;;;;;;20.70;98.90;;;;;;5029565;28;20016;-67
2022/05/30 14:51:33;;;;;;;;;;;20.70;99.00;;;;;;5018030;28;19925;-68
2022/05/30 14:54:05;;;;;;;;;;;20.70;98.80;;;;;;5009288;28;19933;-68
2022/05/30 14:56:32;;;;;;;;;;;20.90;99.30;;;;;;5006972;28;19926;-69
2022/05/30 14:59:00;;;;;;;;;;;21.00;99.20;;;;;;5020139;28;20389;-67
2022/05/30 15:01:27;;;;;;;;;;;21.10;99.30;;;;;;5009085;28;20359;-67
2022/05/30 15:04:05;;;;;;;;;;;21.00;99.20;;;;;;5040404;28;19925;-67
2022/05/30 15:06:36;;;;;;;;;;;21.20;99.90;;;;;;5001639;28;20063;-65
2022/05/30 15:09:05;;;;;;;;;;;22.00;99.90;;;;;;5042236;28;19925;-67
2022/05/30 15:11:32;;;;;;;;;;;22.60;99.40;;;;;;5009448;28;19926;-67
2022/05/30 15:14:00;;;;;;;;;;;22.60;99.30;;;;;;5005919;28;19981;-67
2022/05/30 15:16:27;;;;;;;;;;;23.00;99.50;;;;;;5007905;28;19933;-68
2022/05/30 15:18:54;;;;;;;;;;;23.10;99.20;;;;;;5008787;28;20348;-68
2022/05/30 15:21:21;;;;;;;;;;;23.40;98.50;;;;;;5007681;28;19926;-67
2022/05/30 15:23:49;;;;;;;;;;;23.70;98.40;;;;;;5008333;28;20365;-68